Inuvik (Mike Zubko) Airport

Airport
ICAO code: 
CYEV
Summary
ICAO Region: 
NAM
Territory: 
Location: 
Inuvik, Northwest Territories,
Coordinates: 
Aerial View: 
68° 18' 15.001" N, 133° 28' 58.001" W
Airport BS: 
Bird Strike, Non Avian Wildlife Hazards to Aircraft
Airport CFIT: 
Altimeter Temperature Error Correction
Airport GND: 
Aircraft Ground De/Anti Icing
Airport RE: 
Landing on Contaminated Runways
Metar
Observation
CYEV 272000Z 30012G19KT 2SM -SN DRSN BKN022 BKN031 M24/M26 A3003 RMK SN2SC3SC2 SLP182
Station
Inuvik, N. W. T.
Date/Time
2021-11-27 20:00:00
Wind direction
300°
Wind speed
12 kts
Lowest cloud amount
broken clouds
Temperature
-24°C
Dew point
-26°C
Humidity
83%
Weather condition
light drifting

Description

Inuvik Mike Zubko Airport is a regional airport serving Inuvik, Northwest Territories.

Climatology

Tundra climate (Köppen climate classification ET) - warmest month has an average temperature of 0 - 10 degrees C.

Runways

Designator Length Width Surface Rops
6/24 1829 46 ASP Yes/Yes
Airport map: 
Aerial View: 

SKYbrary Partners:

Safety knowledge contributed by: